sensor_id;sensor_type;location;lat;lon;timestamp;P1;durP1;ratioP1;P2;durP2;ratioP2
75680;SDS011;64294;49.176;16.626;2023-09-07T00:01:41;10.98;;;7.38;;
75680;SDS011;64294;49.176;16.626;2023-09-07T00:04:06;11.85;;;7.05;;
75680;SDS011;64294;49.176;16.626;2023-09-07T00:06:32;11.18;;;7.07;;
75680;SDS011;64294;49.176;16.626;2023-09-07T00:08:57;11.38;;;6.85;;
75680;SDS011;64294;49.176;16.626;2023-09-07T00:11:24;9.85;;;6.60;;
75680;SDS011;64294;49.176;16.626;2023-09-07T00:13:49;10.68;;;7.38;;
75680;SDS011;64294;49.176;16.626;2023-09-07T00:16:16;11.75;;;7.15;;
75680;SDS011;64294;49.176;16.626;2023-09-07T00:18:41;9.45;;;6.80;;
75680;SDS011;64294;49.176;16.626;2023-09-07T00:21:08;10.10;;;6.82;;
75680;SDS011;64294;49.176;16.626;2023-09-07T00:23:33;12.30;;;7.10;;
75680;SDS011;64294;49.176;16.626;2023-09-07T00:25:59;11.45;;;7.50;;
75680;SDS011;64294;49.176;16.626;2023-09-07T00:28:24;13.07;;;6.90;;
75680;SDS011;64294;49.176;16.626;2023-09-07T00:30:49;9.32;;;6.90;;
75680;SDS011;64294;49.176;16.626;2023-09-07T00:33:15;11.07;;;7.03;;
75680;SDS011;64294;49.176;16.626;2023-09-07T00:35:41;10.07;;;6.53;;
75680;SDS011;64294;49.176;16.626;2023-09-07T00:38:06;12.48;;;7.07;;
75680;SDS011;64294;49.176;16.626;2023-09-07T00:40:32;10.00;;;7.38;;
75680;SDS011;64294;49.176;16.626;2023-09-07T00:42:58;11.10;;;7.22;;
75680;SDS011;64294;49.176;16.626;2023-09-07T00:45:24;11.20;;;7.57;;
75680;SDS011;64294;49.176;16.626;2023-09-07T00:47:50;11.00;;;7.30;;
75680;SDS011;64294;49.176;16.626;2023-09-07T00:50:15;11.27;;;7.55;;
75680;SDS011;64294;49.176;16.626;2023-09-07T00:52:47;13.45;;;7.75;;
75680;SDS011;64294;49.176;16.626;2023-09-07T00:55:13;12.15;;;7.70;;
75680;SDS011;64294;49.176;16.626;2023-09-07T00:57:39;10.35;;;7.07;;
75680;SDS011;64294;49.176;16.626;2023-09-07T01:00:07;11.25;;;7.47;;
75680;SDS011;64294;49.176;16.626;2023-09-07T01:02:34;11.25;;;7.60;;
75680;SDS011;64294;49.176;16.626;2023-09-07T01:05:00;13.60;;;7.93;;
75680;SDS011;64294;49.176;16.626;2023-09-07T01:07:32;10.00;;;7.13;;
75680;SDS011;64294;49.176;16.626;2023-09-07T01:10:11;11.65;;;7.80;;
75680;SDS011;64294;49.176;16.626;2023-09-07T01:12:40;10.85;;;7.97;;
75680;SDS011;64294;49.176;16.626;2023-09-07T01:15:05;12.10;;;7.30;;
75680;SDS011;64294;49.176;16.626;2023-09-07T01:17:32;10.32;;;7.60;;
75680;SDS011;64294;49.176;16.626;2023-09-07T01:19:59;11.13;;;7.78;;
75680;SDS011;64294;49.176;16.626;2023-09-07T01:22:34;11.57;;;7.75;;
75680;SDS011;64294;49.176;16.626;2023-09-07T01:25:00;10.75;;;7.78;;
75680;SDS011;64294;49.176;16.626;2023-09-07T01:27:26;11.30;;;7.35;;
75680;SDS011;64294;49.176;16.626;2023-09-07T01:29:52;11.52;;;8.07;;
75680;SDS011;64294;49.176;16.626;2023-09-07T01:32:17;11.13;;;7.90;;
75680;SDS011;64294;49.176;16.626;2023-09-07T01:34:43;10.35;;;7.72;;
75680;SDS011;64294;49.176;16.626;2023-09-07T01:37:08;12.63;;;7.97;;
75680;SDS011;64294;49.176;16.626;2023-09-07T01:39:34;11.55;;;7.53;;
75680;SDS011;64294;49.176;16.626;2023-09-07T01:41:59;11.07;;;7.70;;
75680;SDS011;64294;49.176;16.626;2023-09-07T01:44:25;10.85;;;7.88;;
75680;SDS011;64294;49.176;16.626;2023-09-07T01:46:52;11.13;;;7.82;;
75680;SDS011;64294;49.176;16.626;2023-09-07T01:49:17;11.43;;;7.82;;
75680;SDS011;64294;49.176;16.626;2023-09-07T01:51:43;11.18;;;7.90;;
75680;SDS011;64294;49.176;16.626;2023-09-07T01:54:08;12.73;;;8.63;;
75680;SDS011;64294;49.176;16.626;2023-09-07T01:56:34;13.32;;;8.10;;
75680;SDS011;64294;49.176;16.626;2023-09-07T01:59:00;13.85;;;7.68;;
75680;SDS011;64294;49.176;16.626;2023-09-07T02:01:27;13.68;;;7.68;;
75680;SDS011;64294;49.176;16.626;2023-09-07T02:03:54;11.15;;;7.65;;
75680;SDS011;64294;49.176;16.626;2023-09-07T02:06:20;12.68;;;7.80;;
75680;SDS011;64294;49.176;16.626;2023-09-07T02:08:45;10.75;;;7.38;;
75680;SDS011;64294;49.176;16.626;2023-09-07T02:11:11;11.77;;;7.22;;
75680;SDS011;64294;49.176;16.626;2023-09-07T02:13:36;12.05;;;7.68;;
75680;SDS011;64294;49.176;16.626;2023-09-07T02:16:05;14.90;;;7.93;;
75680;SDS011;64294;49.176;16.626;2023-09-07T02:18:33;11.75;;;7.53;;
75680;SDS011;64294;49.176;16.626;2023-09-07T02:21:02;13.15;;;8.40;;
75680;SDS011;64294;49.176;16.626;2023-09-07T02:23:31;10.90;;;7.63;;
75680;SDS011;64294;49.176;16.626;2023-09-07T02:25:57;11.23;;;7.72;;
75680;SDS011;64294;49.176;16.626;2023-09-07T02:28:23;11.77;;;7.68;;
75680;SDS011;64294;49.176;16.626;2023-09-07T02:30:49;12.30;;;8.05;;
75680;SDS011;64294;49.176;16.626;2023-09-07T02:33:14;12.90;;;7.78;;
75680;SDS011;64294;49.176;16.626;2023-09-07T02:35:39;11.85;;;7.78;;
75680;SDS011;64294;49.176;16.626;2023-09-07T02:38:05;11.68;;;7.50;;
75680;SDS011;64294;49.176;16.626;2023-09-07T02:40:30;12.38;;;7.88;;
75680;SDS011;64294;49.176;16.626;2023-09-07T02:42:56;12.07;;;7.63;;
75680;SDS011;64294;49.176;16.626;2023-09-07T02:45:21;11.68;;;8.00;;
75680;SDS011;64294;49.176;16.626;2023-09-07T02:47:48;11.85;;;7.55;;
75680;SDS011;64294;49.176;16.626;2023-09-07T02:50:16;11.45;;;7.60;;
75680;SDS011;64294;49.176;16.626;2023-09-07T02:52:42;13.40;;;8.25;;
75680;SDS011;64294;49.176;16.626;2023-09-07T02:55:08;11.35;;;8.25;;
75680;SDS011;64294;49.176;16.626;2023-09-07T02:57:34;12.65;;;8.23;;
75680;SDS011;64294;49.176;16.626;2023-09-07T03:00:00;12.20;;;8.30;;
75680;SDS011;64294;49.176;16.626;2023-09-07T03:02:28;12.40;;;8.50;;
75680;SDS011;64294;49.176;16.626;2023-09-07T03:04:54;11.77;;;8.23;;
75680;SDS011;64294;49.176;16.626;2023-09-07T03:07:20;12.52;;;9.05;;
75680;SDS011;64294;49.176;16.626;2023-09-07T03:09:45;13.73;;;8.75;;
75680;SDS011;64294;49.176;16.626;2023-09-07T03:12:11;14.35;;;9.85;;
75680;SDS011;64294;49.176;16.626;2023-09-07T03:14:36;14.40;;;9.52;;
75680;SDS011;64294;49.176;16.626;2023-09-07T03:17:01;14.25;;;9.15;;
75680;SDS011;64294;49.176;16.626;2023-09-07T03:19:28;16.88;;;9.30;;
75680;SDS011;64294;49.176;16.626;2023-09-07T03:21:53;15.52;;;9.02;;
75680;SDS011;64294;49.176;16.626;2023-09-07T03:24:19;13.05;;;8.95;;
75680;SDS011;64294;49.176;16.626;2023-09-07T03:26:45;14.32;;;9.48;;
75680;SDS011;64294;49.176;16.626;2023-09-07T03:29:11;13.52;;;8.98;;
75680;SDS011;64294;49.176;16.626;2023-09-07T03:31:36;12.02;;;9.02;;
75680;SDS011;64294;49.176;16.626;2023-09-07T03:34:02;13.57;;;8.77;;
75680;SDS011;64294;49.176;16.626;2023-09-07T03:36:27;12.00;;;8.27;;
75680;SDS011;64294;49.176;16.626;2023-09-07T03:38:53;13.40;;;9.00;;
75680;SDS011;64294;49.176;16.626;2023-09-07T03:41:19;12.98;;;8.52;;
75680;SDS011;64294;49.176;16.626;2023-09-07T03:43:45;12.05;;;8.30;;
75680;SDS011;64294;49.176;16.626;2023-09-07T03:46:11;10.90;;;8.00;;
75680;SDS011;64294;49.176;16.626;2023-09-07T03:48:37;11.85;;;8.10;;
75680;SDS011;64294;49.176;16.626;2023-09-07T03:51:06;13.18;;;8.20;;
75680;SDS011;64294;49.176;16.626;2023-09-07T03:53:32;12.90;;;8.40;;
75680;SDS011;64294;49.176;16.626;2023-09-07T03:55:57;11.60;;;7.65;;
75680;SDS011;64294;49.176;16.626;2023-09-07T03:58:22;13.55;;;8.55;;
75680;SDS011;64294;49.176;16.626;2023-09-07T04:00:48;10.65;;;8.15;;
75680;SDS011;64294;49.176;16.626;2023-09-07T04:03:13;11.48;;;7.57;;
75680;SDS011;64294;49.176;16.626;2023-09-07T04:05:40;16.10;;;8.50;;
75680;SDS011;64294;49.176;16.626;2023-09-07T04:08:07;14.32;;;8.13;;
75680;SDS011;64294;49.176;16.626;2023-09-07T04:10:32;16.50;;;9.02;;
75680;SDS011;64294;49.176;16.626;2023-09-07T04:12:58;15.75;;;9.15;;
75680;SDS011;64294;49.176;16.626;2023-09-07T04:15:26;14.15;;;8.73;;
75680;SDS011;64294;49.176;16.626;2023-09-07T04:17:52;13.75;;;9.27;;
75680;SDS011;64294;49.176;16.626;2023-09-07T04:20:19;16.83;;;9.77;;
75680;SDS011;64294;49.176;16.626;2023-09-07T04:22:45;14.68;;;9.20;;
75680;SDS011;64294;49.176;16.626;2023-09-07T04:25:10;14.65;;;8.63;;
75680;SDS011;64294;49.176;16.626;2023-09-07T04:27:36;17.35;;;9.27;;
75680;SDS011;64294;49.176;16.626;2023-09-07T04:30:01;13.55;;;8.70;;
75680;SDS011;64294;49.176;16.626;2023-09-07T04:32:27;13.13;;;8.45;;
75680;SDS011;64294;49.176;16.626;2023-09-07T04:34:53;17.33;;;8.82;;
75680;SDS011;64294;49.176;16.626;2023-09-07T04:37:20;21.63;;;9.13;;
75680;SDS011;64294;49.176;16.626;2023-09-07T04:39:45;16.70;;;8.60;;
75680;SDS011;64294;49.176;16.626;2023-09-07T04:42:12;16.75;;;9.85;;
75680;SDS011;64294;49.176;16.626;2023-09-07T04:44:37;19.00;;;9.48;;
75680;SDS011;64294;49.176;16.626;2023-09-07T04:47:03;18.77;;;8.80;;
75680;SDS011;64294;49.176;16.626;2023-09-07T04:49:29;18.17;;;9.63;;
75680;SDS011;64294;49.176;16.626;2023-09-07T04:51:55;24.70;;;9.25;;
75680;SDS011;64294;49.176;16.626;2023-09-07T04:54:22;19.30;;;9.38;;
75680;SDS011;64294;49.176;16.626;2023-09-07T04:56:47;18.80;;;9.60;;
75680;SDS011;64294;49.176;16.626;2023-09-07T04:59:13;14.27;;;9.15;;
75680;SDS011;64294;49.176;16.626;2023-09-07T05:01:39;15.48;;;9.32;;
75680;SDS011;64294;49.176;16.626;2023-09-07T05:04:05;14.32;;;8.30;;
75680;SDS011;64294;49.176;16.626;2023-09-07T05:06:33;18.33;;;8.63;;
75680;SDS011;64294;49.176;16.626;2023-09-07T05:09:02;15.95;;;9.00;;
75680;SDS011;64294;49.176;16.626;2023-09-07T05:11:28;15.60;;;9.27;;
75680;SDS011;64294;49.176;16.626;2023-09-07T05:13:53;15.32;;;9.20;;
75680;SDS011;64294;49.176;16.626;2023-09-07T05:16:19;12.27;;;7.93;;
75680;SDS011;64294;49.176;16.626;2023-09-07T05:18:44;13.68;;;8.05;;
75680;SDS011;64294;49.176;16.626;2023-09-07T05:21:13;13.35;;;8.23;;
75680;SDS011;64294;49.176;16.626;2023-09-07T05:23:39;13.48;;;8.18;;
75680;SDS011;64294;49.176;16.626;2023-09-07T05:26:05;14.45;;;8.48;;
75680;SDS011;64294;49.176;16.626;2023-09-07T05:28:30;13.68;;;7.95;;
75680;SDS011;64294;49.176;16.626;2023-09-07T05:30:56;15.30;;;7.90;;
75680;SDS011;64294;49.176;16.626;2023-09-07T05:33:21;14.23;;;8.25;;
75680;SDS011;64294;49.176;16.626;2023-09-07T05:35:46;14.93;;;7.80;;
75680;SDS011;64294;49.176;16.626;2023-09-07T05:38:12;13.80;;;7.93;;
75680;SDS011;64294;49.176;16.626;2023-09-07T05:40:43;10.88;;;7.78;;
75680;SDS011;64294;49.176;16.626;2023-09-07T05:43:10;12.40;;;7.18;;
75680;SDS011;64294;49.176;16.626;2023-09-07T05:45:38;13.57;;;7.97;;
75680;SDS011;64294;49.176;16.626;2023-09-07T05:48:05;14.05;;;7.53;;
75680;SDS011;64294;49.176;16.626;2023-09-07T05:50:34;15.07;;;7.95;;
75680;SDS011;64294;49.176;16.626;2023-09-07T05:53:04;13.43;;;7.13;;
75680;SDS011;64294;49.176;16.626;2023-09-07T05:55:30;13.77;;;6.70;;
75680;SDS011;64294;49.176;16.626;2023-09-07T05:57:57;15.73;;;7.28;;
75680;SDS011;64294;49.176;16.626;2023-09-07T06:00:31;15.63;;;6.65;;
75680;SDS011;64294;49.176;16.626;2023-09-07T06:02:57;12.25;;;6.88;;
75680;SDS011;64294;49.176;16.626;2023-09-07T06:05:24;18.92;;;7.00;;
75680;SDS011;64294;49.176;16.626;2023-09-07T06:07:49;13.57;;;7.20;;
75680;SDS011;64294;49.176;16.626;2023-09-07T06:10:15;14.43;;;7.15;;
75680;SDS011;64294;49.176;16.626;2023-09-07T06:12:42;11.65;;;6.93;;
75680;SDS011;64294;49.176;16.626;2023-09-07T06:15:08;12.30;;;6.88;;
75680;SDS011;64294;49.176;16.626;2023-09-07T06:17:34;11.07;;;6.88;;
75680;SDS011;64294;49.176;16.626;2023-09-07T06:19:59;12.05;;;7.25;;
75680;SDS011;64294;49.176;16.626;2023-09-07T06:22:24;11.15;;;7.55;;
75680;SDS011;64294;49.176;16.626;2023-09-07T06:24:50;11.25;;;6.93;;
75680;SDS011;64294;49.176;16.626;2023-09-07T06:27:15;13.82;;;7.13;;
75680;SDS011;64294;49.176;16.626;2023-09-07T06:29:41;10.05;;;6.60;;
75680;SDS011;64294;49.176;16.626;2023-09-07T06:32:06;10.30;;;6.90;;
75680;SDS011;64294;49.176;16.626;2023-09-07T06:34:31;13.48;;;7.20;;
75680;SDS011;64294;49.176;16.626;2023-09-07T06:36:57;11.55;;;7.20;;
75680;SDS011;64294;49.176;16.626;2023-09-07T06:39:22;15.68;;;6.82;;
75680;SDS011;64294;49.176;16.626;2023-09-07T06:41:48;11.68;;;6.60;;
75680;SDS011;64294;49.176;16.626;2023-09-07T06:44:13;12.02;;;6.53;;
75680;SDS011;64294;49.176;16.626;2023-09-07T06:46:39;11.32;;;6.43;;
75680;SDS011;64294;49.176;16.626;2023-09-07T06:49:05;10.75;;;6.25;;
75680;SDS011;64294;49.176;16.626;2023-09-07T06:51:30;13.77;;;6.47;;
75680;SDS011;64294;49.176;16.626;2023-09-07T06:53:56;8.95;;;6.22;;
75680;SDS011;64294;49.176;16.626;2023-09-07T06:56:22;11.15;;;6.82;;
75680;SDS011;64294;49.176;16.626;2023-09-07T06:58:47;9.13;;;6.72;;
75680;SDS011;64294;49.176;16.626;2023-09-07T07:01:13;10.13;;;6.65;;
75680;SDS011;64294;49.176;16.626;2023-09-07T07:03:38;12.43;;;6.32;;
75680;SDS011;64294;49.176;16.626;2023-09-07T07:06:04;11.85;;;6.60;;
75680;SDS011;64294;49.176;16.626;2023-09-07T07:08:29;15.73;;;7.10;;
75680;SDS011;64294;49.176;16.626;2023-09-07T07:10:54;10.85;;;6.80;;
75680;SDS011;64294;49.176;16.626;2023-09-07T07:13:20;10.20;;;6.22;;
75680;SDS011;64294;49.176;16.626;2023-09-07T07:15:45;11.93;;;6.85;;
75680;SDS011;64294;49.176;16.626;2023-09-07T07:18:11;9.75;;;6.55;;
75680;SDS011;64294;49.176;16.626;2023-09-07T07:20:37;9.73;;;6.40;;
75680;SDS011;64294;49.176;16.626;2023-09-07T07:23:03;14.63;;;6.32;;
75680;SDS011;64294;49.176;16.626;2023-09-07T07:25:29;12.32;;;6.53;;
75680;SDS011;64294;49.176;16.626;2023-09-07T07:27:58;10.30;;;6.65;;
75680;SDS011;64294;49.176;16.626;2023-09-07T07:30:26;9.30;;;6.53;;
75680;SDS011;64294;49.176;16.626;2023-09-07T07:32:52;12.20;;;6.30;;
75680;SDS011;64294;49.176;16.626;2023-09-07T07:35:18;9.88;;;6.55;;
75680;SDS011;64294;49.176;16.626;2023-09-07T07:37:43;11.00;;;6.40;;
75680;SDS011;64294;49.176;16.626;2023-09-07T07:40:09;12.48;;;6.70;;
75680;SDS011;64294;49.176;16.626;2023-09-07T07:42:34;11.00;;;6.57;;
75680;SDS011;64294;49.176;16.626;2023-09-07T07:45:00;11.85;;;6.60;;
75680;SDS011;64294;49.176;16.626;2023-09-07T07:47:25;12.10;;;6.60;;
75680;SDS011;64294;49.176;16.626;2023-09-07T07:49:51;9.27;;;6.55;;
75680;SDS011;64294;49.176;16.626;2023-09-07T07:52:17;11.55;;;6.47;;
75680;SDS011;64294;49.176;16.626;2023-09-07T07:54:43;11.98;;;6.72;;
75680;SDS011;64294;49.176;16.626;2023-09-07T07:57:09;14.27;;;6.40;;
75680;SDS011;64294;49.176;16.626;2023-09-07T07:59:35;13.30;;;6.55;;
75680;SDS011;64294;49.176;16.626;2023-09-07T08:02:04;13.15;;;6.55;;
75680;SDS011;64294;49.176;16.626;2023-09-07T08:04:31;11.40;;;6.60;;
75680;SDS011;64294;49.176;16.626;2023-09-07T08:06:57;12.30;;;6.82;;
75680;SDS011;64294;49.176;16.626;2023-09-07T08:09:28;12.73;;;6.57;;
75680;SDS011;64294;49.176;16.626;2023-09-07T08:11:56;7.95;;;5.47;;
75680;SDS011;64294;49.176;16.626;2023-09-07T08:14:22;8.50;;;5.57;;
75680;SDS011;64294;49.176;16.626;2023-09-07T08:16:49;11.02;;;5.60;;
75680;SDS011;64294;49.176;16.626;2023-09-07T08:19:17;14.07;;;5.75;;
75680;SDS011;64294;49.176;16.626;2023-09-07T08:21:42;8.00;;;5.10;;
75680;SDS011;64294;49.176;16.626;2023-09-07T08:24:09;8.68;;;5.32;;
75680;SDS011;64294;49.176;16.626;2023-09-07T08:26:35;11.13;;;5.35;;
75680;SDS011;64294;49.176;16.626;2023-09-07T08:29:01;10.07;;;5.45;;
75680;SDS011;64294;49.176;16.626;2023-09-07T08:31:30;13.20;;;5.57;;
75680;SDS011;64294;49.176;16.626;2023-09-07T08:34:02;10.35;;;5.53;;
75680;SDS011;64294;49.176;16.626;2023-09-07T08:36:30;8.10;;;5.25;;
75680;SDS011;64294;49.176;16.626;2023-09-07T08:39:00;10.63;;;5.20;;
75680;SDS011;64294;49.176;16.626;2023-09-07T08:41:30;12.68;;;5.28;;
75680;SDS011;64294;49.176;16.626;2023-09-07T08:43:57;11.40;;;5.28;;
75680;SDS011;64294;49.176;16.626;2023-09-07T08:46:22;9.48;;;5.20;;
75680;SDS011;64294;49.176;16.626;2023-09-07T08:48:49;8.40;;;5.43;;
75680;SDS011;64294;49.176;16.626;2023-09-07T08:51:15;11.15;;;5.10;;
75680;SDS011;64294;49.176;16.626;2023-09-07T08:53:42;11.73;;;5.15;;
75680;SDS011;64294;49.176;16.626;2023-09-07T08:56:13;8.00;;;4.88;;
75680;SDS011;64294;49.176;16.626;2023-09-07T08:58:39;11.27;;;5.30;;
75680;SDS011;64294;49.176;16.626;2023-09-07T09:01:07;8.63;;;4.90;;
75680;SDS011;64294;49.176;16.626;2023-09-07T09:03:36;8.50;;;4.85;;
75680;SDS011;64294;49.176;16.626;2023-09-07T09:06:01;9.50;;;5.00;;
75680;SDS011;64294;49.176;16.626;2023-09-07T09:08:53;9.02;;;5.40;;
75680;SDS011;64294;49.176;16.626;2023-09-07T09:11:21;8.50;;;4.78;;
75680;SDS011;64294;49.176;16.626;2023-09-07T09:13:48;10.85;;;5.22;;
75680;SDS011;64294;49.176;16.626;2023-09-07T09:16:16;7.38;;;4.82;;
75680;SDS011;64294;49.176;16.626;2023-09-07T09:21:14;11.88;;;5.30;;
75680;SDS011;64294;49.176;16.626;2023-09-07T09:23:41;7.90;;;5.13;;
75680;SDS011;64294;49.176;16.626;2023-09-07T09:26:06;9.80;;;5.32;;
75680;SDS011;64294;49.176;16.626;2023-09-07T09:28:32;8.60;;;5.07;;
75680;SDS011;64294;49.176;16.626;2023-09-07T09:30:59;6.88;;;4.80;;
75680;SDS011;64294;49.176;16.626;2023-09-07T09:33:25;6.72;;;4.70;;
75680;SDS011;64294;49.176;16.626;2023-09-07T09:35:54;6.18;;;4.68;;
75680;SDS011;64294;49.176;16.626;2023-09-07T09:38:23;8.10;;;5.18;;
75680;SDS011;64294;49.176;16.626;2023-09-07T09:40:50;7.18;;;5.15;;
75680;SDS011;64294;49.176;16.626;2023-09-07T09:43:19;9.98;;;5.30;;
75680;SDS011;64294;49.176;16.626;2023-09-07T09:45:45;8.60;;;5.07;;
75680;SDS011;64294;49.176;16.626;2023-09-07T09:48:11;7.97;;;5.18;;
75680;SDS011;64294;49.176;16.626;2023-09-07T09:50:38;8.45;;;4.88;;
75680;SDS011;64294;49.176;16.626;2023-09-07T09:53:05;8.23;;;5.40;;
75680;SDS011;64294;49.176;16.626;2023-09-07T09:55:34;6.85;;;4.78;;
75680;SDS011;64294;49.176;16.626;2023-09-07T09:58:00;6.97;;;4.80;;
75680;SDS011;64294;49.176;16.626;2023-09-07T10:00:26;6.28;;;4.80;;
75680;SDS011;64294;49.176;16.626;2023-09-07T10:03:10;7.05;;;5.03;;
75680;SDS011;64294;49.176;16.626;2023-09-07T10:05:39;8.05;;;5.20;;
75680;SDS011;64294;49.176;16.626;2023-09-07T10:08:09;10.07;;;4.90;;
75680;SDS011;64294;49.176;16.626;2023-09-07T10:10:37;7.35;;;4.97;;
75680;SDS011;64294;49.176;16.626;2023-09-07T10:13:03;8.57;;;4.97;;
75680;SDS011;64294;49.176;16.626;2023-09-07T10:15:30;7.10;;;5.00;;
75680;SDS011;64294;49.176;16.626;2023-09-07T10:18:09;8.88;;;5.05;;
75680;SDS011;64294;49.176;16.626;2023-09-07T10:20:58;10.52;;;4.75;;
75680;SDS011;64294;49.176;16.626;2023-09-07T10:23:40;11.63;;;4.88;;
75680;SDS011;64294;49.176;16.626;2023-09-07T10:26:13;6.65;;;4.72;;
75680;SDS011;64294;49.176;16.626;2023-09-07T10:28:41;9.18;;;4.60;;
75680;SDS011;64294;49.176;16.626;2023-09-07T10:31:17;8.95;;;4.80;;
75680;SDS011;64294;49.176;16.626;2023-09-07T10:33:43;7.00;;;4.35;;
75680;SDS011;64294;49.176;16.626;2023-09-07T10:36:20;6.97;;;4.47;;
75680;SDS011;64294;49.176;16.626;2023-09-07T10:38:49;7.43;;;4.85;;
75680;SDS011;64294;49.176;16.626;2023-09-07T10:41:18;6.15;;;4.55;;
75680;SDS011;64294;49.176;16.626;2023-09-07T10:44:02;7.03;;;4.75;;
75680;SDS011;64294;49.176;16.626;2023-09-07T10:46:27;6.15;;;4.55;;
75680;SDS011;64294;49.176;16.626;2023-09-07T10:48:53;9.07;;;4.72;;
75680;SDS011;64294;49.176;16.626;2023-09-07T10:51:19;5.22;;;4.13;;
75680;SDS011;64294;49.176;16.626;2023-09-07T10:53:45;8.02;;;4.78;;
75680;SDS011;64294;49.176;16.626;2023-09-07T10:56:10;8.80;;;4.32;;
75680;SDS011;64294;49.176;16.626;2023-09-07T10:58:36;6.82;;;4.47;;
75680;SDS011;64294;49.176;16.626;2023-09-07T11:01:07;6.13;;;4.70;;
75680;SDS011;64294;49.176;16.626;2023-09-07T11:03:33;8.15;;;4.75;;
75680;SDS011;64294;49.176;16.626;2023-09-07T11:06:03;5.32;;;4.25;;
75680;SDS011;64294;49.176;16.626;2023-09-07T11:08:37;7.05;;;4.28;;
75680;SDS011;64294;49.176;16.626;2023-09-07T11:11:05;6.45;;;4.50;;
75680;SDS011;64294;49.176;16.626;2023-09-07T11:13:31;10.13;;;4.88;;
75680;SDS011;64294;49.176;16.626;2023-09-07T11:15:57;10.10;;;5.18;;
75680;SDS011;64294;49.176;16.626;2023-09-07T11:18:24;6.32;;;4.57;;
75680;SDS011;64294;49.176;16.626;2023-09-07T11:20:51;8.35;;;4.90;;
75680;SDS011;64294;49.176;16.626;2023-09-07T11:23:17;9.48;;;4.80;;
75680;SDS011;64294;49.176;16.626;2023-09-07T11:25:43;7.25;;;4.78;;
75680;SDS011;64294;49.176;16.626;2023-09-07T11:28:09;6.78;;;4.72;;
75680;SDS011;64294;49.176;16.626;2023-09-07T11:30:36;9.85;;;4.78;;
75680;SDS011;64294;49.176;16.626;2023-09-07T11:33:05;9.13;;;4.50;;
75680;SDS011;64294;49.176;16.626;2023-09-07T11:35:32;6.55;;;4.35;;
75680;SDS011;64294;49.176;16.626;2023-09-07T11:38:01;5.65;;;4.30;;
75680;SDS011;64294;49.176;16.626;2023-09-07T11:40:30;7.80;;;4.40;;
75680;SDS011;64294;49.176;16.626;2023-09-07T11:42:55;7.78;;;4.40;;
75680;SDS011;64294;49.176;16.626;2023-09-07T11:45:21;6.82;;;4.22;;
75680;SDS011;64294;49.176;16.626;2023-09-07T11:47:50;7.38;;;4.25;;
75680;SDS011;64294;49.176;16.626;2023-09-07T11:50:18;10.18;;;4.30;;
75680;SDS011;64294;49.176;16.626;2023-09-07T11:52:44;5.07;;;4.07;;
75680;SDS011;64294;49.176;16.626;2023-09-07T11:55:10;8.80;;;4.95;;
75680;SDS011;64294;49.176;16.626;2023-09-07T11:57:36;8.73;;;5.10;;
75680;SDS011;64294;49.176;16.626;2023-09-07T12:00:03;8.35;;;5.00;;
75680;SDS011;64294;49.176;16.626;2023-09-07T12:02:31;8.63;;;6.13;;
75680;SDS011;64294;49.176;16.626;2023-09-07T12:04:56;4.73;;;4.10;;
75680;SDS011;64294;49.176;16.626;2023-09-07T12:07:22;11.43;;;4.18;;
75680;SDS011;64294;49.176;16.626;2023-09-07T12:09:47;7.80;;;4.50;;
75680;SDS011;64294;49.176;16.626;2023-09-07T12:12:14;8.25;;;4.35;;
75680;SDS011;64294;49.176;16.626;2023-09-07T12:14:40;6.80;;;4.30;;
75680;SDS011;64294;49.176;16.626;2023-09-07T12:17:05;4.97;;;4.33;;
75680;SDS011;64294;49.176;16.626;2023-09-07T12:19:31;8.18;;;4.50;;
75680;SDS011;64294;49.176;16.626;2023-09-07T12:21:56;5.90;;;4.53;;
75680;SDS011;64294;49.176;16.626;2023-09-07T12:24:21;7.82;;;4.60;;
75680;SDS011;64294;49.176;16.626;2023-09-07T12:26:47;8.65;;;4.85;;
75680;SDS011;64294;49.176;16.626;2023-09-07T12:29:12;8.43;;;5.20;;
75680;SDS011;64294;49.176;16.626;2023-09-07T12:31:38;6.55;;;4.25;;
75680;SDS011;64294;49.176;16.626;2023-09-07T12:34:03;7.72;;;4.53;;
75680;SDS011;64294;49.176;16.626;2023-09-07T12:36:29;9.00;;;4.68;;
75680;SDS011;64294;49.176;16.626;2023-09-07T12:38:55;8.00;;;4.60;;
75680;SDS011;64294;49.176;16.626;2023-09-07T12:41:26;6.88;;;4.63;;
75680;SDS011;64294;49.176;16.626;2023-09-07T12:43:58;6.40;;;4.45;;
75680;SDS011;64294;49.176;16.626;2023-09-07T12:46:23;8.05;;;4.72;;
75680;SDS011;64294;49.176;16.626;2023-09-07T12:48:49;7.85;;;4.38;;
75680;SDS011;64294;49.176;16.626;2023-09-07T12:51:14;10.93;;;4.65;;
75680;SDS011;64294;49.176;16.626;2023-09-07T12:53:41;6.78;;;4.30;;
75680;SDS011;64294;49.176;16.626;2023-09-07T12:56:06;9.82;;;4.88;;
75680;SDS011;64294;49.176;16.626;2023-09-07T12:58:32;8.60;;;5.07;;
75680;SDS011;64294;49.176;16.626;2023-09-07T13:00:57;7.10;;;4.93;;
75680;SDS011;64294;49.176;16.626;2023-09-07T13:03:23;8.45;;;6.18;;
75680;SDS011;64294;49.176;16.626;2023-09-07T13:05:48;7.68;;;4.47;;
75680;SDS011;64294;49.176;16.626;2023-09-07T13:08:14;7.03;;;4.70;;
75680;SDS011;64294;49.176;16.626;2023-09-07T13:10:40;7.57;;;4.47;;
75680;SDS011;64294;49.176;16.626;2023-09-07T13:13:06;9.80;;;5.13;;
75680;SDS011;64294;49.176;16.626;2023-09-07T13:15:32;10.68;;;4.72;;
75680;SDS011;64294;49.176;16.626;2023-09-07T13:17:57;8.65;;;4.25;;
75680;SDS011;64294;49.176;16.626;2023-09-07T13:20:23;5.82;;;4.10;;
75680;SDS011;64294;49.176;16.626;2023-09-07T13:22:48;6.15;;;4.20;;
75680;SDS011;64294;49.176;16.626;2023-09-07T13:25:14;6.47;;;4.32;;
75680;SDS011;64294;49.176;16.626;2023-09-07T13:27:39;6.05;;;4.47;;
75680;SDS011;64294;49.176;16.626;2023-09-07T13:30:07;6.25;;;4.25;;
75680;SDS011;64294;49.176;16.626;2023-09-07T13:32:33;6.65;;;4.18;;
75680;SDS011;64294;49.176;16.626;2023-09-07T13:34:59;5.30;;;3.95;;
75680;SDS011;64294;49.176;16.626;2023-09-07T13:37:25;7.22;;;4.55;;
75680;SDS011;64294;49.176;16.626;2023-09-07T13:39:52;6.22;;;4.22;;
75680;SDS011;64294;49.176;16.626;2023-09-07T13:42:17;8.23;;;4.30;;
75680;SDS011;64294;49.176;16.626;2023-09-07T13:44:42;7.85;;;4.10;;
75680;SDS011;64294;49.176;16.626;2023-09-07T13:47:10;9.43;;;4.65;;
75680;SDS011;64294;49.176;16.626;2023-09-07T13:49:36;9.85;;;4.55;;
75680;SDS011;64294;49.176;16.626;2023-09-07T13:52:01;5.55;;;4.10;;
75680;SDS011;64294;49.176;16.626;2023-09-07T13:54:27;8.70;;;4.47;;
75680;SDS011;64294;49.176;16.626;2023-09-07T13:56:52;5.65;;;4.15;;
75680;SDS011;64294;49.176;16.626;2023-09-07T13:59:17;5.68;;;4.00;;
75680;SDS011;64294;49.176;16.626;2023-09-07T14:01:43;6.10;;;4.40;;
75680;SDS011;64294;49.176;16.626;2023-09-07T14:04:08;6.82;;;4.38;;
75680;SDS011;64294;49.176;16.626;2023-09-07T14:06:34;8.32;;;4.75;;
75680;SDS011;64294;49.176;16.626;2023-09-07T14:08:59;9.40;;;4.93;;
75680;SDS011;64294;49.176;16.626;2023-09-07T14:11:24;7.28;;;4.40;;
75680;SDS011;64294;49.176;16.626;2023-09-07T14:13:50;8.27;;;4.45;;
75680;SDS011;64294;49.176;16.626;2023-09-07T14:16:17;8.65;;;4.28;;
75680;SDS011;64294;49.176;16.626;2023-09-07T14:18:44;9.07;;;4.88;;
75680;SDS011;64294;49.176;16.626;2023-09-07T14:21:09;7.18;;;4.75;;
75680;SDS011;64294;49.176;16.626;2023-09-07T14:23:35;6.82;;;4.97;;
75680;SDS011;64294;49.176;16.626;2023-09-07T14:26:00;7.40;;;4.63;;